Time;durP1;ratioP1;P1;durP2;ratioP2;P2;SDS_P1;SDS_P2;PMS_P1;PMS_P2;Temp;Humidity;BMP_temperature;BMP_pressure;BME280_temperature;BME280_humidity;BME280_pressure;Samples;Min_cycle;Max_cycle;Signal;HPM_P1;HPM_P2
2020/12/02 00:01:13;;;;;;;108.97;42.58;;;;;;;3.45;100.00;102007.41;6175081;28;20055;-70
2020/12/02 00:04:16;;;;;;;128.00;42.83;;;;;;;3.48;100.00;101996.09;6175531;28;20073;-70
2020/12/02 00:07:19;;;;;;;106.45;38.50;;;;;;;3.47;100.00;102004.78;6175026;28;20539;-70
2020/12/02 00:10:19;;;;;;;123.05;40.17;;;;;;;3.47;100.00;102000.44;6174434;28;20047;-70
2020/12/02 00:13:24;;;;;;;113.45;41.05;;;;;;;3.49;100.00;101996.09;6175052;28;20132;-70
2020/12/02 00:16:28;;;;;;;129.90;44.40;;;;;;;3.51;100.00;101998.72;6174568;28;20061;-70
2020/12/02 00:19:28;;;;;;;117.38;41.08;;;;;;;3.52;100.00;101996.09;6174444;28;20073;-70
2020/12/02 00:22:30;;;;;;;119.95;44.92;;;;;;;3.61;100.00;101991.72;6174354;28;20138;-70
2020/12/02 00:25:31;;;;;;;113.78;43.20;;;;;;;3.54;100.00;101996.97;6175108;28;20054;-70
2020/12/02 00:28:32;;;;;;;114.40;43.38;;;;;;;3.48;100.00;101990.91;6173263;28;20074;-70
2020/12/02 00:31:33;;;;;;;122.80;42.97;;;;;;;3.43;100.00;101995.28;6174393;28;20070;-70
2020/12/02 00:34:33;;;;;;;118.65;42.28;;;;;;;3.45;100.00;101997.00;6174620;28;20058;-70
2020/12/02 00:37:35;;;;;;;135.98;46.65;;;;;;;3.47;100.00;101997.00;6174528;28;20101;-70
2020/12/02 00:40:36;;;;;;;119.32;43.78;;;;;;;3.44;100.00;101997.84;6174070;28;20055;-70
2020/12/02 00:43:37;;;;;;;117.57;42.25;;;;;;;3.46;100.00;102000.47;6174138;28;20078;-70
2020/12/02 00:46:38;;;;;;;102.82;41.08;;;;;;;3.43;100.00;101998.72;6174209;28;20047;-70
2020/12/02 00:49:39;;;;;;;110.18;40.10;;;;;;;3.41;100.00;102002.22;6173700;28;20046;-70
2020/12/02 00:52:41;;;;;;;103.15;41.67;;;;;;;3.36;100.00;101997.03;6174446;28;20134;-70
2020/12/02 00:55:44;;;;;;;100.20;40.10;;;;;;;3.35;100.00;101992.69;6174134;28;20051;-70
2020/12/02 00:58:59;;;;;;;102.82;38.63;;;;;;;3.32;100.00;101995.31;6173134;28;20050;-70
2020/12/02 01:02:06;;;;;;;91.15;40.33;;;;;;;3.31;100.00;101991.81;6174120;28;20055;-70
2020/12/02 01:05:08;;;;;;;95.30;37.42;;;;;;;3.30;100.00;101997.03;6174175;28;20058;-70
2020/12/02 01:08:19;;;;;;;93.55;39.47;;;;;;;3.31;100.00;102001.34;6173510;28;20447;-70
2020/12/02 01:11:24;;;;;;;87.30;37.53;;;;;;;3.33;100.00;101999.63;6173587;28;20083;-70
2020/12/02 01:14:26;;;;;;;87.35;37.60;;;;;;;3.29;100.00;102003.97;6173443;28;20058;-70
2020/12/02 01:17:27;;;;;;;88.40;39.45;;;;;;;3.26;100.00;102003.97;6173732;28;20055;-70
2020/12/02 01:20:27;;;;;;;87.50;38.17;;;;;;;3.30;100.00;102002.22;6173236;28;20086;-70
2020/12/02 01:23:30;;;;;;;85.20;37.60;;;;;;;3.39;100.00;102001.34;6173670;28;20051;-70
2020/12/02 01:26:36;;;;;;;77.70;36.10;;;;;;;3.30;100.00;102007.44;6173392;28;20070;-70
2020/12/02 01:29:38;;;;;;;82.13;36.83;;;;;;;3.29;100.00;102010.91;6173046;28;20078;-70
2020/12/02 01:32:41;;;;;;;93.28;39.50;;;;;;;3.25;100.00;102001.38;6173354;28;20078;-70
2020/12/02 01:35:45;;;;;;;87.45;36.92;;;;;;;3.23;100.00;101987.56;6173522;28;20047;-70
2020/12/02 01:38:47;;;;;;;84.45;37.72;;;;;;;3.20;100.00;101996.19;6172402;28;20051;-70
2020/12/02 01:41:48;;;;;;;89.35;37.75;;;;;;;3.21;100.00;101987.53;6173383;28;20054;-70
2020/12/02 01:44:50;;;;;;;86.35;37.35;;;;;;;3.24;100.00;101994.47;6173174;28;20055;-70
2020/12/02 01:48:15;;;;;;;88.57;37.97;;;;;;;3.24;100.00;101987.53;6173147;28;20054;-70
2020/12/02 01:51:29;;;;;;;83.60;35.90;;;;;;;3.23;100.00;101987.56;6172951;28;20047;-70
2020/12/02 01:54:36;;;;;;;80.30;34.25;;;;;;;3.23;100.00;101983.22;6173198;28;20050;-70
2020/12/02 01:57:37;;;;;;;83.03;35.95;;;;;;;3.22;100.00;101983.19;6173118;28;20051;-70
2020/12/02 02:00:41;;;;;;;84.65;38.10;;;;;;;3.18;100.00;101982.38;6172647;28;20047;-70
2020/12/02 02:03:42;;;;;;;88.28;37.97;;;;;;;3.20;100.00;101977.16;6173319;28;20054;-70
2020/12/02 02:07:02;;;;;;;86.18;37.72;;;;;;;3.20;100.00;101977.16;6172879;28;20061;-70
2020/12/02 02:10:12;;;;;;;84.70;36.88;;;;;;;3.18;100.00;101978.88;6172723;28;20047;-70
2020/12/02 02:13:37;;;;;;;77.28;34.97;;;;;;;3.21;100.00;101978.88;6172661;28;20051;-70
2020/12/02 02:16:41;;;;;;;77.38;35.35;;;;;;;3.22;100.00;101978.00;6172809;28;20081;-70
2020/12/02 02:19:42;;;;;;;83.38;37.03;;;;;;;3.17;100.00;101985.81;6172456;28;20507;-70
2020/12/02 02:22:43;;;;;;;81.38;36.13;;;;;;;3.16;100.00;101984.09;6173133;28;20051;-70
2020/12/02 02:25:59;;;;;;;80.93;35.00;;;;;;;3.12;100.00;101976.31;6172903;28;20050;-71
2020/12/02 02:29:05;;;;;;;81.60;36.70;;;;;;;3.10;100.00;101978.06;6172493;28;20540;-70
2020/12/02 02:32:11;;;;;;;75.28;34.38;;;;;;;3.13;100.00;101978.91;6172876;28;20050;-71
2020/12/02 02:35:12;;;;;;;78.75;35.55;;;;;;;3.08;100.00;101980.66;6172951;28;20057;-70
2020/12/02 02:38:13;;;;;;;83.63;35.65;;;;;;;3.07;100.00;101975.47;6172549;28;20062;-70
2020/12/02 02:41:15;;;;;;;77.13;34.45;;;;;;;3.06;100.00;101972.00;6172490;28;20051;-70
2020/12/02 02:44:16;;;;;;;77.68;34.97;;;;;;;3.10;100.00;101973.72;6172527;28;20067;-70
2020/12/02 02:47:17;;;;;;;76.50;35.25;;;;;;;3.07;100.00;101978.94;6172560;28;20510;-70
2020/12/02 02:50:20;;;;;;;74.35;35.13;;;;;;;3.10;100.00;101978.94;6172612;28;20496;-70
2020/12/02 02:53:24;;;;;;;78.28;35.10;;;;;;;3.09;100.00;101968.53;6176747;28;20050;-70
2020/12/02 02:56:26;;;;;;;82.53;36.90;;;;;;;3.10;100.00;101972.88;6176485;28;20419;-70
2020/12/02 02:59:27;;;;;;;84.63;36.15;;;;;;;3.10;100.00;101968.53;6203425;23;20522;-70
2020/12/02 03:02:28;;;;;;;79.07;35.20;;;;;;;3.12;100.00;101963.31;6198747;28;20054;-70
2020/12/02 03:05:29;;;;;;;72.38;33.05;;;;;;;3.13;100.00;101962.44;6200532;28;20116;-71
2020/12/02 03:08:31;;;;;;;77.03;35.75;;;;;;;3.12;100.00;101952.94;6200531;28;20066;-70
2020/12/02 03:11:34;;;;;;;80.50;35.63;;;;;;;3.08;100.00;101954.69;6200035;28;20050;-71
2020/12/02 03:14:41;;;;;;;74.18;34.13;;;;;;;3.00;100.00;101954.72;6200473;28;20053;-70
2020/12/02 03:17:42;;;;;;;71.88;34.10;;;;;;;3.01;100.00;101953.84;6199675;28;20459;-71
2020/12/02 03:20:51;;;;;;;75.30;33.30;;;;;;;3.01;100.00;101951.25;6191948;28;20042;-70
2020/12/02 03:23:52;;;;;;;73.50;35.03;;;;;;;3.02;100.00;101952.09;6200283;28;20050;-70
2020/12/02 03:26:54;;;;;;;72.07;33.40;;;;;;;3.05;100.00;101945.19;6200269;28;20525;-71
2020/12/02 03:29:55;;;;;;;80.75;34.45;;;;;;;3.04;100.00;101953.84;6199608;28;20518;-71
2020/12/02 03:32:56;;;;;;;69.95;33.90;;;;;;;3.03;100.00;101948.63;6200484;28;20050;-71
2020/12/02 03:35:57;;;;;;;74.38;32.00;;;;;;;3.09;100.00;101946.03;6199747;28;20522;-71
2020/12/02 03:38:58;;;;;;;79.47;35.72;;;;;;;3.03;100.00;101948.63;6199760;28;20057;-71
2020/12/02 03:42:00;;;;;;;64.90;31.73;;;;;;;3.00;100.00;101951.25;6199745;28;20618;-71
2020/12/02 03:45:00;;;;;;;70.30;32.95;;;;;;;2.95;100.00;101950.38;6199959;28;20050;-71
2020/12/02 03:48:02;;;;;;;65.10;31.42;;;;;;;2.99;100.00;101942.56;6199720;28;20057;-71
2020/12/02 03:51:03;;;;;;;81.00;36.30;;;;;;;3.12;100.00;101942.56;6198840;28;20491;-71
2020/12/02 03:54:04;;;;;;;71.85;34.63;;;;;;;3.01;100.00;101938.25;6200062;28;20058;-70
2020/12/02 03:57:06;;;;;;;76.50;35.70;;;;;;;3.03;100.00;101940.84;6199298;28;20056;-71
2020/12/02 04:00:10;;;;;;;76.85;33.22;;;;;;;3.12;100.00;101937.34;6199057;28;20047;-70
2020/12/02 04:03:11;;;;;;;68.32;32.78;;;;;;;3.08;100.00;101935.63;6199246;28;20058;-71
2020/12/02 04:06:12;;;;;;;74.78;34.63;;;;;;;3.00;100.00;101936.53;6199261;28;20495;-71
2020/12/02 04:09:13;;;;;;;78.50;35.97;;;;;;;3.01;100.00;101940.84;6198965;28;20177;-71
2020/12/02 04:12:15;;;;;;;70.68;33.20;;;;;;;3.00;100.00;101938.28;6198947;28;20042;-71
2020/12/02 04:15:18;;;;;;;75.18;36.13;;;;;;;3.02;100.00;101931.34;6199402;28;20053;-71
2020/12/02 04:18:19;;;;;;;71.65;34.85;;;;;;;3.02;100.00;101929.59;6198683;28;20054;-71
2020/12/02 04:21:24;;;;;;;70.95;32.97;;;;;;;3.03;100.00;101930.47;6198781;28;20046;-71
2020/12/02 04:24:26;;;;;;;76.90;35.65;;;;;;;2.98;100.00;101927.88;6199257;28;20069;-68
2020/12/02 04:27:28;;;;;;;74.63;36.10;;;;;;;2.99;100.00;101921.81;6198782;28;20146;-71
2020/12/02 04:30:28;;;;;;;73.53;35.00;;;;;;;3.02;100.00;101920.94;6198028;28;20042;-71
2020/12/02 04:33:29;;;;;;;81.50;36.30;;;;;;;2.99;100.00;101919.22;6198974;28;20074;-71
2020/12/02 04:36:30;;;;;;;72.25;34.88;;;;;;;3.01;100.00;101916.63;6198447;28;20057;-70
2020/12/02 04:39:31;;;;;;;76.28;33.63;;;;;;;2.97;100.00;101922.69;6198167;28;20426;-71
2020/12/02 04:42:37;;;;;;;70.43;33.75;;;;;;;2.96;100.00;101913.19;6198172;28;20129;-71
2020/12/02 04:45:38;;;;;;;74.28;35.60;;;;;;;2.94;100.00;101917.50;6198770;28;20057;-71
2020/12/02 04:48:41;;;;;;;75.75;33.60;;;;;;;2.93;100.00;101914.03;6197623;28;20050;-71
2020/12/02 04:51:42;;;;;;;75.68;33.10;;;;;;;2.89;100.00;101903.69;6198589;28;20530;-71
2020/12/02 04:54:43;;;;;;;71.55;34.50;;;;;;;2.90;100.00;101908.00;6198317;28;20050;-71
2020/12/02 04:57:45;;;;;;;69.97;34.60;;;;;;;2.99;100.00;101908.81;6197912;28;20057;-71
2020/12/02 05:00:45;;;;;;;76.00;34.40;;;;;;;2.88;100.00;101909.75;6197538;28;20423;-71
2020/12/02 05:04:08;;;;;;;65.07;31.63;;;;;;;2.93;100.00;101910.59;6198036;28;20047;-70
2020/12/02 05:07:19;;;;;;;79.47;34.35;;;;;;;2.89;100.00;101916.66;6197799;28;20419;-71
2020/12/02 05:10:20;;;;;;;71.57;33.80;;;;;;;2.88;100.00;101908.00;6196964;28;20054;-70
2020/12/02 05:13:22;;;;;;;72.70;33.75;;;;;;;2.91;100.00;101910.59;6197388;28;20722;-71
2020/12/02 05:16:23;;;;;;;68.40;31.92;;;;;;;2.86;100.00;101916.66;6197220;28;20525;-71
2020/12/02 05:19:24;;;;;;;72.43;33.38;;;;;;;2.84;100.00;101910.63;6197500;28;20050;-68
2020/12/02 05:22:25;;;;;;;73.68;33.22;;;;;;;2.83;100.00;101917.53;6197646;28;20090;-71
2020/12/02 05:25:31;;;;;;;66.70;32.45;;;;;;;2.86;100.00;101914.94;6197880;28;20050;-71
2020/12/02 05:28:40;;;;;;;76.43;34.63;;;;;;;2.87;100.00;101914.06;6197264;28;20503;-70
2020/12/02 05:31:43;;;;;;;72.70;34.75;;;;;;;2.86;100.00;101914.94;6197509;28;20050;-70
2020/12/02 05:34:45;;;;;;;74.50;34.72;;;;;;;2.82;100.00;101921.00;6197415;28;20507;-71
2020/12/02 05:37:53;;;;;;;67.28;33.45;;;;;;;2.87;100.00;101918.41;6197535;28;20046;-70
2020/12/02 05:40:55;;;;;;;72.28;32.75;;;;;;;2.85;100.00;101905.41;6196567;28;20393;-70
2020/12/02 05:44:02;;;;;;;70.78;32.75;;;;;;;2.83;100.00;101901.97;6197780;28;20498;-70
2020/12/02 05:47:09;;;;;;;72.03;31.70;;;;;;;2.85;100.00;101901.94;6197121;28;20058;-70
2020/12/02 05:50:14;;;;;;;71.68;33.08;;;;;;;2.81;100.00;101901.09;6197095;28;20050;-70
2020/12/02 05:53:22;;;;;;;76.30;34.45;;;;;;;2.79;100.00;101892.47;6197462;28;20050;-71
2020/12/02 05:56:22;;;;;;;68.40;33.17;;;;;;;2.88;100.00;101894.16;6197240;28;20050;-71
2020/12/02 05:59:24;;;;;;;69.80;31.52;;;;;;;2.79;100.00;101893.31;6196942;28;20081;-71
2020/12/02 06:02:25;;;;;;;71.22;33.85;;;;;;;2.80;100.00;101899.38;6197236;28;20051;-71
2020/12/02 06:05:27;;;;;;;71.38;32.53;;;;;;;2.80;100.00;101900.22;6197336;28;20100;-71
2020/12/02 06:08:35;;;;;;;67.55;33.85;;;;;;;2.78;100.00;101901.97;6196521;28;20061;-71
2020/12/02 06:11:37;;;;;;;73.20;34.03;;;;;;;2.88;100.00;101900.22;6197261;28;20046;-71
2020/12/02 06:14:39;;;;;;;65.50;32.30;;;;;;;2.78;100.00;101898.53;6197149;28;20057;-71
2020/12/02 06:17:40;;;;;;;68.55;32.30;;;;;;;2.78;100.00;101906.31;6196692;28;20062;-71
2020/12/02 06:20:45;;;;;;;67.05;30.77;;;;;;;2.77;100.00;101900.25;6196584;28;20474;-71
2020/12/02 06:23:52;;;;;;;77.03;33.58;;;;;;;2.74;100.00;101897.66;6197865;28;20057;-70
2020/12/02 06:26:52;;;;;;;69.85;33.78;;;;;;;2.76;100.00;101888.13;6201183;28;20047;-70
2020/12/02 06:30:01;;;;;;;72.88;34.35;;;;;;;2.79;100.00;101882.94;6200946;28;20410;-70
2020/12/02 06:33:19;;;;;;;73.68;33.50;;;;;;;2.77;100.00;101876.91;6201560;28;20058;-71
2020/12/02 06:36:23;;;;;;;68.00;31.85;;;;;;;2.77;100.00;101876.91;6200388;28;20054;-70
2020/12/02 06:39:28;;;;;;;67.97;32.60;;;;;;;2.75;100.00;101877.75;6200667;28;20058;-70
2020/12/02 06:42:32;;;;;;;63.63;31.13;;;;;;;2.78;100.00;101875.16;6201397;28;20388;-70
2020/12/02 06:45:37;;;;;;;66.30;32.03;;;;;;;2.73;100.00;101874.31;6201300;28;20061;-70
2020/12/02 06:48:39;;;;;;;70.05;33.53;;;;;;;2.68;100.00;101865.66;6200639;28;20061;-70
2020/12/02 06:51:52;;;;;;;67.97;33.00;;;;;;;2.68;100.00;101860.47;6201097;28;20061;-70
2020/12/02 06:55:08;;;;;;;69.55;30.45;;;;;;;2.69;100.00;101868.28;6201041;28;20053;-71
2020/12/02 06:58:12;;;;;;;67.95;32.53;;;;;;;2.69;100.00;101862.22;6200648;28;20061;-71
2020/12/02 07:01:20;;;;;;;67.70;31.38;;;;;;;2.68;100.00;101869.16;6200322;28;20499;-70
2020/12/02 07:04:23;;;;;;;74.20;34.28;;;;;;;2.69;100.00;101877.78;6200749;28;20423;-70
2020/12/02 07:07:24;;;;;;;72.13;34.75;;;;;;;2.72;100.00;101875.16;6200340;28;20077;-70
2020/12/02 07:10:25;;;;;;;84.95;37.30;;;;;;;2.71;100.00;101874.31;6199348;28;20050;-70
2020/12/02 07:13:28;;;;;;;74.30;36.17;;;;;;;2.66;100.00;101865.66;6200520;28;20058;-70
2020/12/02 07:16:33;;;;;;;72.10;34.13;;;;;;;2.69;100.00;101868.28;6200500;28;20050;-70
2020/12/02 07:19:36;;;;;;;73.85;33.53;;;;;;;2.66;100.00;101875.19;6199815;28;20065;-70
2020/12/02 07:22:50;;;;;;;77.47;31.63;;;;;;;2.65;100.00;101871.72;6200536;28;20419;-70
2020/12/02 07:25:51;;;;;;;68.90;30.90;;;;;;;2.63;100.00;101875.19;6200016;28;20054;-70
2020/12/02 07:28:59;;;;;;;70.47;32.35;;;;;;;2.63;100.00;101872.59;6199811;28;20054;-70
2020/12/02 07:32:03;;;;;;;73.55;33.83;;;;;;;2.64;100.00;101874.34;6200012;28;20503;-70
2020/12/02 07:35:13;;;;;;;67.93;31.60;;;;;;;2.66;100.00;101868.25;6200137;28;20050;-70
2020/12/02 07:38:15;;;;;;;69.97;32.95;;;;;;;2.64;100.00;101866.56;6198884;28;20057;-70
2020/12/02 07:41:19;;;;;;;73.82;33.20;;;;;;;2.68;100.00;101865.66;6199530;28;20049;-70
2020/12/02 07:44:21;;;;;;;75.95;33.60;;;;;;;2.66;100.00;101865.66;6199878;28;20051;-70
2020/12/02 07:47:22;;;;;;;64.18;30.52;;;;;;;2.71;100.00;101861.31;6199710;28;20141;-70
2020/12/02 07:50:29;;;;;;;70.60;32.00;;;;;;;2.65;100.00;101868.28;6199102;28;20050;-70
2020/12/02 07:53:47;;;;;;;75.13;34.22;;;;;;;2.68;100.00;101869.16;6199505;28;20058;-70
2020/12/02 07:56:49;;;;;;;74.63;33.08;;;;;;;2.69;100.00;101862.22;6199269;28;20053;-70
2020/12/02 08:00:10;;;;;;;74.97;34.60;;;;;;;2.69;100.00;101857.88;6198996;28;20051;-70
2020/12/02 08:03:37;;;;;;;73.13;32.85;;;;;;;2.73;100.00;101856.16;6199604;28;20050;-70
2020/12/02 08:06:58;;;;;;;73.40;33.40;;;;;;;2.68;100.00;101852.69;6188574;28;20058;-70
2020/12/02 08:09:59;;;;;;;75.60;32.67;;;;;;;2.63;100.00;101851.84;6198561;28;20051;-70
2020/12/02 08:13:04;;;;;;;71.22;32.67;;;;;;;2.63;100.00;101859.63;6199130;28;20499;-70
2020/12/02 08:16:05;;;;;;;71.00;32.17;;;;;;;2.61;100.00;101849.25;6199030;28;20057;-70
2020/12/02 08:19:09;;;;;;;69.25;31.92;;;;;;;2.62;100.00;101852.72;6198802;28;20046;-70
2020/12/02 08:22:23;;;;;;;75.35;32.17;;;;;;;2.71;100.00;101842.28;6194113;28;20136;-70
2020/12/02 08:25:27;;;;;;;73.53;33.40;;;;;;;2.65;100.00;101842.31;6188075;28;20050;-70
2020/12/02 08:28:35;;;;;;;64.93;31.80;;;;;;;2.68;100.00;101848.38;6176908;28;20061;-70
2020/12/02 08:31:38;;;;;;;69.75;32.35;;;;;;;2.65;100.00;101844.94;6174734;28;20058;-70
2020/12/02 08:34:38;;;;;;;77.80;33.72;;;;;;;2.66;100.00;101841.44;6174716;28;20062;-70
2020/12/02 08:37:40;;;;;;;77.93;33.40;;;;;;;2.68;100.00;101832.81;6196307;28;20431;-70
2020/12/02 08:40:46;;;;;;;81.32;34.17;;;;;;;2.72;100.00;101828.44;6198192;28;20053;-70
2020/12/02 08:43:47;;;;;;;79.15;32.72;;;;;;;2.71;100.00;101824.13;6198655;28;20503;-70
2020/12/02 08:46:54;;;;;;;66.30;30.90;;;;;;;2.69;100.00;101829.34;6198274;28;20054;-70
2020/12/02 08:49:55;;;;;;;68.97;30.63;;;;;;;2.73;100.00;101819.81;6197153;28;20058;-70
2020/12/02 08:52:59;;;;;;;67.75;32.00;;;;;;;2.66;100.00;101816.38;6198397;28;20057;-70
2020/12/02 08:56:01;;;;;;;69.70;32.22;;;;;;;2.69;100.00;101813.75;6198041;28;20574;-70
2020/12/02 08:59:04;;;;;;;65.97;31.30;;;;;;;2.66;100.00;101813.75;6211808;23;20057;-68
2020/12/02 09:02:10;;;;;;;69.68;32.15;;;;;;;2.68;100.00;101816.34;6193868;28;20050;-69
2020/12/02 09:05:11;;;;;;;69.35;33.47;;;;;;;2.64;100.00;101810.34;6194465;28;20050;-68
2020/12/02 09:08:12;;;;;;;73.07;32.03;;;;;;;2.66;100.00;101811.16;6197902;28;20085;-69
2020/12/02 09:11:18;;;;;;;70.75;34.15;;;;;;;2.65;100.00;101817.25;6197658;28;20049;-69
2020/12/02 09:14:19;;;;;;;77.85;35.40;;;;;;;2.69;100.00;101810.31;6198146;28;20065;-69
2020/12/02 09:17:20;;;;;;;71.07;33.33;;;;;;;2.69;100.00;101805.97;6197734;28;20054;-68
2020/12/02 09:20:21;;;;;;;75.80;33.63;;;;;;;2.73;100.00;101805.09;6189031;28;20054;-69
2020/12/02 09:23:22;;;;;;;74.20;33.80;;;;;;;2.68;100.00;101796.47;6197889;28;20047;-69
2020/12/02 09:26:26;;;;;;;66.57;32.35;;;;;;;2.74;100.00;101791.25;6197436;28;20136;-69
2020/12/02 09:29:27;;;;;;;73.50;34.47;;;;;;;2.74;100.00;101800.78;6197074;28;20050;-69
2020/12/02 09:32:27;;;;;;;71.35;32.60;;;;;;;2.83;100.00;101795.53;6197476;28;20452;-69
2020/12/02 09:35:28;;;;;;;76.07;32.65;;;;;;;2.80;100.00;101790.34;6196897;28;20396;-68
2020/12/02 09:38:29;;;;;;;67.80;33.25;;;;;;;2.74;100.00;101793.84;6197361;28;20061;-69
2020/12/02 09:41:42;;;;;;;72.20;34.50;;;;;;;2.82;100.00;101783.44;6197021;28;20058;-69
2020/12/02 09:44:56;;;;;;;67.63;31.33;;;;;;;2.91;100.00;101780.78;6197468;28;20046;-69
2020/12/02 09:47:57;;;;;;;66.10;33.30;;;;;;;2.80;100.00;101767.84;6197466;28;20056;-69
2020/12/02 09:50:57;;;;;;;76.10;34.45;;;;;;;2.84;100.00;101770.44;6196865;28;20461;-69
2020/12/02 09:53:58;;;;;;;68.03;33.50;;;;;;;2.82;100.00;101773.06;6197766;28;20050;-69
2020/12/02 09:57:00;;;;;;;73.38;33.95;;;;;;;2.84;100.00;101760.91;6197056;28;20046;-68
2020/12/02 10:00:01;;;;;;;80.25;35.45;;;;;;;2.87;100.00;101760.91;6198592;28;20525;-68
2020/12/02 10:03:44;;;;;;;70.95;34.40;;;;;;;2.93;100.00;101750.47;6201584;28;20058;-68
2020/12/02 10:07:14;;;;;;;73.15;34.05;;;;;;;2.89;100.00;101751.38;6201848;28;20058;-69
2020/12/02 10:10:40;;;;;;;77.57;35.80;;;;;;;2.94;100.00;101735.75;6198580;28;20058;-69
2020/12/02 10:13:57;;;;;;;75.15;33.50;;;;;;;2.88;100.00;101735.81;6202226;28;20054;-69
2020/12/02 10:17:07;;;;;;;80.68;36.30;;;;;;;2.87;100.00;101727.16;6201828;28;20062;-69
2020/12/02 10:20:26;;;;;;;76.63;33.95;;;;;;;2.94;100.00;101720.19;6201581;28;20046;-68
2020/12/02 10:23:53;;;;;;;82.47;35.88;;;;;;;2.86;100.00;101717.66;6202007;28;20052;-69
2020/12/02 10:27:09;;;;;;;78.47;34.75;;;;;;;2.86;100.00;101721.97;6183445;28;20134;-70
2020/12/02 10:30:15;;;;;;;77.03;35.78;;;;;;;2.84;100.00;101702.94;6181909;28;20061;-69
2020/12/02 10:33:52;;;;;;;81.65;37.63;;;;;;;2.88;100.00;101697.72;6184717;28;20051;-69
2020/12/02 10:36:57;;;;;;;76.88;35.05;;;;;;;2.98;100.00;101690.75;6197000;28;20054;-70
2020/12/02 10:39:58;;;;;;;87.30;35.08;;;;;;;2.95;100.00;101688.16;6193156;28;20061;-70
2020/12/02 10:43:06;;;;;;;90.32;36.58;;;;;;;2.94;100.00;101676.06;6196967;28;20176;-69
2020/12/02 10:46:17;;;;;;;72.38;34.55;;;;;;;2.99;100.00;101674.28;6187560;28;20050;-70
2020/12/02 10:49:26;;;;;;;74.85;35.33;;;;;;;2.96;100.00;101664.78;6195894;28;20054;-71
2020/12/02 10:52:27;;;;;;;90.68;41.10;;;;;;;2.95;100.00;101659.59;6190751;28;20057;-70
2020/12/02 10:55:30;;;;;;;88.47;39.70;;;;;;;2.91;100.00;101647.53;6176970;28;20051;-70
2020/12/02 10:58:31;;;;;;;82.63;38.25;;;;;;;2.95;100.00;101647.50;6176828;28;20139;-70
2020/12/02 11:01:33;;;;;;;84.82;38.10;;;;;;;2.94;100.00;101644.91;6191034;28;20097;-70
2020/12/02 11:04:34;;;;;;;87.35;38.08;;;;;;;2.98;100.00;101639.66;6177468;28;20058;-71
2020/12/02 11:07:42;;;;;;;88.88;39.25;;;;;;;2.95;100.00;101641.41;6176516;28;20512;-71
2020/12/02 11:11:06;;;;;;;86.45;39.38;;;;;;;3.02;100.00;101637.91;6175517;28;20046;-69
2020/12/02 11:14:17;;;;;;;88.88;39.30;;;;;;;3.00;100.00;101627.56;6176636;28;20151;-70
2020/12/02 11:17:28;;;;;;;93.70;40.72;;;;;;;3.03;100.00;101624.06;6180689;28;20054;-71
2020/12/02 11:20:38;;;;;;;92.68;38.95;;;;;;;3.05;100.00;101617.13;6200126;28;20065;-69
2020/12/02 11:23:54;;;;;;;93.35;41.08;;;;;;;3.08;100.00;101611.03;6200540;28;20053;-71
2020/12/02 11:26:55;;;;;;;89.65;39.40;;;;;;;3.02;100.00;101605.03;6200061;28;20066;-70
2020/12/02 11:29:56;;;;;;;92.20;42.28;;;;;;;3.11;99.77;101603.22;6199783;28;20192;-70
2020/12/02 11:33:28;;;;;;;90.05;40.00;;;;;;;2.98;100.00;101595.53;6199906;28;20053;-69
2020/12/02 11:36:38;;;;;;;88.47;39.90;;;;;;;2.97;100.00;101591.22;6200078;28;20046;-70
2020/12/02 11:40:02;;;;;;;86.20;39.08;;;;;;;3.05;100.00;101592.03;6199464;28;20051;-69
2020/12/02 11:43:09;;;;;;;92.63;39.92;;;;;;;3.09;100.00;101582.47;6200100;28;20073;-69
2020/12/02 11:46:14;;;;;;;97.93;42.63;;;;;;;3.07;100.00;101576.41;6199615;28;20487;-69
2020/12/02 11:49:20;;;;;;;87.53;39.63;;;;;;;3.22;100.00;101580.59;6199627;28;20061;-69
2020/12/02 11:52:32;;;;;;;98.15;41.63;;;;;;;3.10;100.00;101578.16;6199796;28;20447;-69
2020/12/02 11:55:34;;;;;;;100.38;41.42;;;;;;;3.03;99.84;101577.31;6199847;28;20054;-71
2020/12/02 11:58:35;;;;;;;92.90;39.92;;;;;;;3.02;100.00;101579.06;6199514;28;20057;-70
2020/12/02 12:01:45;;;;;;;95.70;41.95;;;;;;;3.19;100.00;101559.88;6192877;28;20055;-71
2020/12/02 12:05:01;;;;;;;86.97;41.00;;;;;;;3.12;100.00;101566.00;6183419;28;20066;-70
2020/12/02 12:08:13;;;;;;;88.20;40.15;;;;;;;3.20;100.00;101561.59;6175181;28;20050;-70
2020/12/02 12:11:23;;;;;;;90.05;41.55;;;;;;;3.14;100.00;101564.25;6174684;28;20046;-70
2020/12/02 12:14:33;;;;;;;93.88;42.33;;;;;;;3.10;100.00;101563.41;6175331;28;20054;-70
2020/12/02 12:17:38;;;;;;;91.95;41.38;;;;;;;3.05;99.83;101560.88;6174968;28;20055;-70
2020/12/02 12:20:44;;;;;;;91.13;41.05;;;;;;;3.21;100.00;101564.16;6174717;28;20404;-70
2020/12/02 12:23:55;;;;;;;97.28;42.80;;;;;;;3.19;98.08;101549.50;6185989;28;20054;-71
2020/12/02 12:26:56;;;;;;;91.68;40.97;;;;;;;3.13;98.58;101544.34;6190678;28;20058;-70
2020/12/02 12:29:57;;;;;;;91.30;41.30;;;;;;;3.11;99.14;101543.50;6195570;28;20054;-70
2020/12/02 12:33:04;;;;;;;91.68;41.60;;;;;;;3.19;99.67;101529.56;6174653;28;20415;-70
2020/12/02 12:36:11;;;;;;;106.68;46.40;;;;;;;3.15;99.29;101527.88;6174408;28;20050;-70
2020/12/02 12:39:17;;;;;;;90.93;42.03;;;;;;;3.18;99.25;101521.78;6188487;28;20069;-70
2020/12/02 12:42:22;;;;;;;97.00;41.92;;;;;;;3.17;99.22;101517.47;6198593;28;20061;-70
2020/12/02 12:45:29;;;;;;;96.95;42.58;;;;;;;3.04;99.62;101506.34;6198741;28;20057;-70
2020/12/02 12:48:31;;;;;;;92.82;41.75;;;;;;;3.11;99.67;101502.81;6198210;28;20545;-70
2020/12/02 12:51:32;;;;;;;91.00;42.25;;;;;;;3.11;99.44;101496.75;6198061;28;20046;-70
2020/12/02 12:54:34;;;;;;;102.38;45.17;;;;;;;3.06;99.75;101494.22;6198345;28;20050;-70
2020/12/02 12:57:35;;;;;;;97.65;42.88;;;;;;;3.04;99.75;101493.34;6197841;28;20105;-70
2020/12/02 13:00:39;;;;;;;92.45;41.97;;;;;;;3.11;100.00;101479.44;6184224;28;20069;-70
2020/12/02 13:03:41;;;;;;;88.10;39.13;;;;;;;3.20;99.56;101483.69;6174258;28;20051;-70
2020/12/02 13:06:53;;;;;;;99.53;41.22;;;;;;;3.21;99.62;101477.59;6173739;28;20057;-70
2020/12/02 13:10:15;;;;;;;92.70;43.05;;;;;;;3.14;99.48;101475.97;6173475;28;20497;-70
2020/12/02 13:13:26;;;;;;;92.40;39.50;;;;;;;3.08;99.79;101469.06;6173709;28;20542;-70
2020/12/02 13:16:33;;;;;;;93.28;40.75;;;;;;;3.09;100.00;101464.75;6173744;28;20488;-70
2020/12/02 13:19:44;;;;;;;87.85;40.22;;;;;;;3.09;99.98;101465.63;6173339;28;20463;-70
2020/12/02 13:23:00;;;;;;;87.45;40.67;;;;;;;3.14;100.00;101465.56;6173963;28;20050;-70
2020/12/02 13:26:06;;;;;;;90.25;40.75;;;;;;;3.16;98.69;101456.88;6173358;28;20500;-70
2020/12/02 13:29:16;;;;;;;87.68;38.17;;;;;;;3.20;99.03;101450.78;6180789;28;20077;-70
2020/12/02 13:32:22;;;;;;;89.38;40.42;;;;;;;3.13;98.83;101440.47;6197755;28;20051;-70
2020/12/02 13:35:24;;;;;;;94.43;41.17;;;;;;;3.09;99.52;101434.47;6197178;28;20415;-70
2020/12/02 13:38:27;;;;;;;83.40;37.92;;;;;;;3.12;99.92;101439.59;6198288;28;20526;-68
2020/12/02 13:41:32;;;;;;;85.35;40.25;;;;;;;3.13;99.21;101435.25;6197673;28;20049;-70
2020/12/02 13:44:42;;;;;;;78.93;38.15;;;;;;;3.12;99.24;101430.97;6199046;28;20423;-71
2020/12/02 13:47:45;;;;;;;84.32;38.30;;;;;;;3.11;99.65;101442.22;6197716;28;20057;-71
2020/12/02 13:50:48;;;;;;;92.50;40.67;;;;;;;3.07;99.58;101436.19;6196825;28;20050;-68
2020/12/02 13:53:57;;;;;;;83.80;38.13;;;;;;;3.04;99.93;101434.53;6197740;28;20057;-69
2020/12/02 13:57:04;;;;;;;93.13;38.38;;;;;;;3.03;99.58;101437.09;6197109;28;20510;-69
2020/12/02 14:00:18;;;;;;;82.10;37.05;;;;;;;3.11;99.69;101424.06;6191516;28;20061;-69
2020/12/02 14:03:35;;;;;;;82.13;36.88;;;;;;;3.03;99.98;101430.19;6181190;28;20527;-68